Time;durP1;ratioP1;P1;durP2;ratioP2;P2;SDS_P1;SDS_P2;PMS_P1;PMS_P2;Temp;Humidity;BMP_temperature;BMP_pressure;BME280_temperature;BME280_humidity;BME280_pressure;Samples;Min_cycle;Max_cycle;Signal;HPM_P1;HPM_P2
2023/09/11 00:00:40;;;;;;;648.78;624.78;;;;;;;;;;5022276;28;20214;-92
2023/09/11 00:03:06;;;;;;;650.28;625.50;;;;;;;;;;5027153;28;20203;-93
2023/09/11 00:05:32;;;;;;;636.10;612.70;;;;;;;;;;5034651;28;20200;-92
2023/09/11 00:07:58;;;;;;;648.33;624.38;;;;;;;;;;5028361;28;20180;-93
2023/09/11 00:10:24;;;;;;;637.53;614.03;;;;;;;;;;5040058;28;20184;-95
2023/09/11 00:12:50;;;;;;;624.80;602.15;;;;;;;;;;5037266;28;20197;-94
2023/09/11 00:15:16;;;;;;;613.35;591.30;;;;;;;;;;5024850;28;20197;-88
2023/09/11 00:17:43;;;;;;;613.17;590.97;;;;;;;;;;5016654;28;20196;-90
2023/09/11 00:20:09;;;;;;;611.72;589.33;;;;;;;;;;5018268;28;20190;-88
2023/09/11 00:22:35;;;;;;;642.03;618.20;;;;;;;;;;5020222;28;20674;-86
2023/09/11 00:25:01;;;;;;;620.75;597.83;;;;;;;;;;5019697;28;20269;-89
2023/09/11 00:27:27;;;;;;;618.28;596.20;;;;;;;;;;5019755;28;20295;-89
2023/09/11 00:29:54;;;;;;;628.53;604.88;;;;;;;;;;5020131;28;20215;-88
2023/09/11 00:32:20;;;;;;;621.67;598.75;;;;;;;;;;5019652;28;20214;-90
2023/09/11 00:34:46;;;;;;;623.03;599.97;;;;;;;;;;5009152;28;20197;-87
2023/09/11 00:37:11;;;;;;;640.15;616.25;;;;;;;;;;5018074;28;20186;-88
2023/09/11 00:39:37;;;;;;;628.30;605.22;;;;;;;;;;5020550;28;20198;-92
2023/09/11 00:42:03;;;;;;;621.80;599.08;;;;;;;;;;5011107;28;20302;-89
2023/09/11 00:44:30;;;;;;;595.67;575.08;;;;;;;;;;5019441;28;20196;-92
2023/09/11 00:46:56;;;;;;;543.58;525.03;;;;;;;;;;5012956;28;20182;-90
2023/09/11 00:49:22;;;;;;;508.98;492.35;;;;;;;;;;5018833;28;20189;-88
2023/09/11 00:51:50;;;;;;;538.38;520.60;;;;;;;;;;5019994;28;20224;-87
2023/09/11 00:54:17;;;;;;;536.92;519.25;;;;;;;;;;5012347;28;20201;-88
2023/09/11 00:56:43;;;;;;;549.67;531.22;;;;;;;;;;5014466;28;20236;-89
2023/09/11 00:59:10;;;;;;;551.05;532.53;;;;;;;;;;5021640;28;20200;-92
2023/09/11 01:01:36;;;;;;;562.55;543.20;;;;;;;;;;5015081;28;20214;-92
2023/09/11 01:04:02;;;;;;;569.22;549.83;;;;;;;;;;5021360;28;20219;-92
2023/09/11 01:06:29;;;;;;;552.00;533.40;;;;;;;;;;5006194;28;20568;-92
2023/09/11 01:08:56;;;;;;;535.38;517.42;;;;;;;;;;5023936;28;20212;-93
2023/09/11 01:11:22;;;;;;;598.65;577.75;;;;;;;;;;5022079;28;20279;-91
2023/09/11 01:13:48;;;;;;;602.97;581.58;;;;;;;;;;5015098;28;20196;-92
2023/09/11 01:16:35;;;;;;;576.33;556.22;;;;;;;;;;5021691;28;20189;-92
2023/09/11 01:19:27;;;;;;;599.22;578.03;;;;;;;;;;5012654;28;20236;-92
2023/09/11 01:22:04;;;;;;;586.60;565.72;;;;;;;;;;5016001;28;20214;-91
2023/09/11 01:24:45;;;;;;;527.42;509.52;;;;;;;;;;5018525;28;20285;-92
2023/09/11 01:27:32;;;;;;;574.28;554.38;;;;;;;;;;5019605;28;20189;-93
2023/09/11 01:29:58;;;;;;;535.17;517.25;;;;;;;;;;4988447;28;20213;-92
2023/09/11 01:32:25;;;;;;;541.88;523.47;;;;;;;;;;5017670;28;20211;-91
2023/09/11 01:34:51;;;;;;;601.78;580.15;;;;;;;;;;5002388;28;20209;-92
2023/09/11 01:37:17;;;;;;;599.42;578.33;;;;;;;;;;5013007;28;20197;-92
2023/09/11 01:39:44;;;;;;;584.55;564.20;;;;;;;;;;5015125;28;20198;-93
2023/09/11 01:42:11;;;;;;;598.70;577.85;;;;;;;;;;5018217;28;20221;-92
2023/09/11 01:44:37;;;;;;;598.50;577.28;;;;;;;;;;5013710;28;20181;-92
2023/09/11 01:47:05;;;;;;;595.28;574.13;;;;;;;;;;5020781;28;20212;-93
2023/09/11 01:49:32;;;;;;;590.08;569.30;;;;;;;;;;5013532;28;20178;-92
2023/09/11 01:51:58;;;;;;;591.22;570.05;;;;;;;;;;5009251;28;20215;-90
2023/09/11 01:54:25;;;;;;;577.55;557.35;;;;;;;;;;5020679;28;20190;-92
2023/09/11 01:56:51;;;;;;;571.28;551.88;;;;;;;;;;5007452;28;20241;-93
2023/09/11 01:59:17;;;;;;;563.38;543.92;;;;;;;;;;5021545;28;20201;-89
2023/09/11 02:01:44;;;;;;;581.78;561.75;;;;;;;;;;5021030;28;20217;-90
2023/09/11 02:04:10;;;;;;;530.58;512.80;;;;;;;;;;5015877;28;20182;-91
2023/09/11 02:06:36;;;;;;;554.55;535.90;;;;;;;;;;5010636;28;20186;-92
2023/09/11 02:09:05;;;;;;;484.55;468.85;;;;;;;;;;5011147;28;20219;-91
2023/09/11 02:11:30;;;;;;;497.58;481.27;;;;;;;;;;5013413;28;20213;-90
2023/09/11 02:13:56;;;;;;;490.98;474.85;;;;;;;;;;5011613;28;20219;-91
2023/09/11 02:16:22;;;;;;;491.02;475.23;;;;;;;;;;5021399;28;20189;-90
2023/09/11 02:18:48;;;;;;;477.25;461.90;;;;;;;;;;5018747;28;20206;-90
2023/09/11 02:21:14;;;;;;;482.35;466.63;;;;;;;;;;5013510;28;20224;-92
2023/09/11 02:23:41;;;;;;;505.13;488.27;;;;;;;;;;5023696;28;20642;-92
2023/09/11 02:26:07;;;;;;;487.10;471.38;;;;;;;;;;5015565;28;20224;-92
2023/09/11 02:28:33;;;;;;;482.17;466.38;;;;;;;;;;5021202;28;20666;-91
2023/09/11 02:30:59;;;;;;;511.63;495.02;;;;;;;;;;5004757;28;20220;-92
2023/09/11 02:33:25;;;;;;;472.65;457.35;;;;;;;;;;5012652;28;20276;-92
2023/09/11 02:35:52;;;;;;;451.05;436.50;;;;;;;;;;5013802;28;20201;-91
2023/09/11 02:38:18;;;;;;;432.70;419.40;;;;;;;;;;5011310;28;20202;-93
2023/09/11 02:40:45;;;;;;;423.58;410.63;;;;;;;;;;5020286;28;20204;-93
2023/09/11 02:43:11;;;;;;;413.88;400.85;;;;;;;;;;5013697;28;20683;-90
2023/09/11 02:45:37;;;;;;;433.35;419.75;;;;;;;;;;5008569;28;20202;-92
2023/09/11 02:48:03;;;;;;;433.13;419.33;;;;;;;;;;5001827;28;20186;-92
2023/09/11 02:50:29;;;;;;;431.55;418.15;;;;;;;;;;5021670;28;20189;-94
2023/09/11 02:52:56;;;;;;;425.80;412.23;;;;;;;;;;5016418;28;20245;-92
2023/09/11 02:55:22;;;;;;;428.30;415.00;;;;;;;;;;5021454;28;20201;-92
2023/09/11 02:57:47;;;;;;;416.30;403.35;;;;;;;;;;5017179;28;20193;-93
2023/09/11 03:00:14;;;;;;;423.17;410.05;;;;;;;;;;5020086;28;20200;-92
2023/09/11 03:02:40;;;;;;;412.55;399.80;;;;;;;;;;5022207;28;20702;-92
2023/09/11 03:05:06;;;;;;;413.83;401.08;;;;;;;;;;5013171;28;20564;-92
2023/09/11 03:07:32;;;;;;;404.83;392.52;;;;;;;;;;5013623;28;20181;-92
2023/09/11 03:09:58;;;;;;;398.67;386.45;;;;;;;;;;5020272;28;20273;-93
2023/09/11 03:12:24;;;;;;;412.08;399.27;;;;;;;;;;5017950;28;20214;-91
2023/09/11 03:14:53;;;;;;;396.38;384.25;;;;;;;;;;5002343;28;20190;-92
2023/09/11 03:17:19;;;;;;;403.20;390.92;;;;;;;;;;5002215;28;20699;-91
2023/09/11 03:19:45;;;;;;;424.95;411.80;;;;;;;;;;5012373;28;20206;-92
2023/09/11 03:22:11;;;;;;;424.10;410.90;;;;;;;;;;5011714;28;20224;-91
2023/09/11 03:24:37;;;;;;;419.80;406.65;;;;;;;;;;5009184;28;20252;-92
2023/09/11 03:27:03;;;;;;;415.15;402.23;;;;;;;;;;5020169;28;20180;-92
2023/09/11 03:29:29;;;;;;;404.88;392.58;;;;;;;;;;5021555;28;20195;-91
2023/09/11 03:31:55;;;;;;;406.38;393.83;;;;;;;;;;5021071;28;20303;-94
2023/09/11 03:34:21;;;;;;;413.63;400.90;;;;;;;;;;5011917;28;20192;-93
2023/09/11 03:36:47;;;;;;;403.02;390.73;;;;;;;;;;5018818;28;20185;-91
2023/09/11 03:39:13;;;;;;;401.67;389.60;;;;;;;;;;5018009;28;20260;-92
2023/09/11 03:41:39;;;;;;;398.05;386.00;;;;;;;;;;5013712;28;20221;-93
2023/09/11 03:44:05;;;;;;;384.60;372.70;;;;;;;;;;5013971;28;20192;-91
2023/09/11 03:46:31;;;;;;;391.23;379.17;;;;;;;;;;5020363;28;20196;-92
2023/09/11 03:48:57;;;;;;;384.15;372.67;;;;;;;;;;5021116;28;20200;-92
2023/09/11 03:51:24;;;;;;;385.63;373.80;;;;;;;;;;5017366;28;20227;-92
2023/09/11 03:53:50;;;;;;;383.63;372.15;;;;;;;;;;5027108;28;20194;-92
2023/09/11 03:56:16;;;;;;;389.27;377.23;;;;;;;;;;5017361;28;20667;-91
2023/09/11 03:58:44;;;;;;;377.65;366.10;;;;;;;;;;5022187;28;20198;-92
2023/09/11 04:01:10;;;;;;;362.02;351.10;;;;;;;;;;5027364;28;20221;-92
2023/09/11 04:03:36;;;;;;;370.05;358.80;;;;;;;;;;5013531;28;20191;-93
2023/09/11 04:06:02;;;;;;;384.33;372.45;;;;;;;;;;5018489;28;20191;-92
2023/09/11 04:08:28;;;;;;;370.45;359.05;;;;;;;;;;5028724;28;20231;-91
2023/09/11 04:10:54;;;;;;;379.15;367.63;;;;;;;;;;5030249;28;20223;-92
2023/09/11 04:13:20;;;;;;;366.10;355.05;;;;;;;;;;5028310;28;20189;-91
2023/09/11 04:15:46;;;;;;;365.95;354.90;;;;;;;;;;5029369;28;20270;-92
2023/09/11 04:18:12;;;;;;;379.67;368.20;;;;;;;;;;5027109;28;20200;-93
2023/09/11 04:20:38;;;;;;;379.58;368.08;;;;;;;;;;5015379;28;20320;-92
2023/09/11 04:23:04;;;;;;;377.05;365.80;;;;;;;;;;5025262;28;20200;-94
2023/09/11 04:25:30;;;;;;;381.92;370.27;;;;;;;;;;5029409;28;20175;-93
2023/09/11 04:27:56;;;;;;;368.75;357.45;;;;;;;;;;5029061;28;20242;-92
2023/09/11 04:30:25;;;;;;;363.58;352.58;;;;;;;;;;5028314;28;20195;-92
2023/09/11 04:32:52;;;;;;;352.40;341.00;;;;;;;;;;5021223;28;20271;-92
2023/09/11 04:35:18;;;;;;;353.80;343.30;;;;;;;;;;5018511;28;20219;-92
2023/09/11 04:37:45;;;;;;;339.20;328.75;;;;;;;;;;5009551;28;20173;-92
2023/09/11 04:40:11;;;;;;;330.55;320.60;;;;;;;;;;5023956;28;20183;-90
2023/09/11 04:42:37;;;;;;;336.63;326.58;;;;;;;;;;5023585;28;20321;-92
2023/09/11 04:45:04;;;;;;;351.80;340.85;;;;;;;;;;5024497;28;20184;-92
2023/09/11 04:47:31;;;;;;;351.95;341.20;;;;;;;;;;5024330;28;20252;-93
2023/09/11 04:49:57;;;;;;;346.42;335.73;;;;;;;;;;5022135;28;20846;-92
2023/09/11 04:52:23;;;;;;;342.38;331.67;;;;;;;;;;5020013;28;20215;-93
2023/09/11 04:54:50;;;;;;;346.15;335.45;;;;;;;;;;5026633;28;20666;-92
2023/09/11 04:57:16;;;;;;;333.83;323.73;;;;;;;;;;5027642;28;20175;-92
2023/09/11 04:59:42;;;;;;;343.60;333.17;;;;;;;;;;5022551;28;20241;-93
2023/09/11 05:02:11;;;;;;;343.55;332.98;;;;;;;;;;5024227;28;20214;-93
2023/09/11 05:04:39;;;;;;;340.13;329.93;;;;;;;;;;5005689;28;20192;-94
2023/09/11 05:07:05;;;;;;;343.50;332.90;;;;;;;;;;5018560;28;20191;-93
2023/09/11 05:09:31;;;;;;;348.13;337.60;;;;;;;;;;5025504;28;20296;-93
2023/09/11 05:11:57;;;;;;;350.20;339.37;;;;;;;;;;5025335;28;20677;-92
2023/09/11 05:14:23;;;;;;;349.02;338.58;;;;;;;;;;5026561;28;20188;-93
2023/09/11 05:16:50;;;;;;;358.88;348.13;;;;;;;;;;5019256;28;20225;-94
2023/09/11 05:19:16;;;;;;;365.23;354.23;;;;;;;;;;5018636;28;20196;-91
2023/09/11 05:21:42;;;;;;;357.90;346.80;;;;;;;;;;5025021;28;20214;-93
2023/09/11 05:24:08;;;;;;;359.33;344.73;;;;;;;;;;5015931;28;20861;-93
2023/09/11 05:26:34;;;;;;;362.42;348.10;;;;;;;;;;5016154;28;20188;-92
2023/09/11 05:29:00;;;;;;;372.55;358.88;;;;;;;;;;5023268;28;20547;-94
2023/09/11 05:31:26;;;;;;;356.60;344.77;;;;;;;;;;5023716;28;20298;-95
2023/09/11 05:33:52;;;;;;;346.30;335.70;;;;;;;;;;5017273;28;20295;-93
2023/09/11 05:36:18;;;;;;;340.97;330.27;;;;;;;;;;5015626;28;20198;-92
2023/09/11 05:38:47;;;;;;;342.33;331.92;;;;;;;;;;5017558;28;20193;-92
2023/09/11 05:41:13;;;;;;;330.07;320.07;;;;;;;;;;5019733;28;20748;-92
2023/09/11 05:43:40;;;;;;;336.63;326.10;;;;;;;;;;5016660;28;20216;-94
2023/09/11 05:46:06;;;;;;;335.63;325.00;;;;;;;;;;5025455;28;20182;-94
2023/09/11 05:48:33;;;;;;;345.52;334.95;;;;;;;;;;5023831;28;20727;-93
2023/09/11 05:50:59;;;;;;;334.10;324.20;;;;;;;;;;5016868;28;20267;-93
2023/09/11 05:53:25;;;;;;;339.77;329.65;;;;;;;;;;5019425;28;20264;-93
2023/09/11 05:55:51;;;;;;;339.60;329.52;;;;;;;;;;5011408;28;20205;-94
2023/09/11 05:58:17;;;;;;;342.50;332.17;;;;;;;;;;5020159;28;20196;-93
2023/09/11 06:00:43;;;;;;;357.98;347.10;;;;;;;;;;5015710;28;20221;-92
2023/09/11 06:03:09;;;;;;;353.55;342.90;;;;;;;;;;5019743;28;20553;-93
2023/09/11 06:05:36;;;;;;;385.45;372.30;;;;;;;;;;5009977;28;20542;-93
2023/09/11 06:08:03;;;;;;;387.30;374.45;;;;;;;;;;5019871;28;20246;-93
2023/09/11 06:10:29;;;;;;;360.20;349.23;;;;;;;;;;5028040;28;20192;-94
2023/09/11 06:12:55;;;;;;;350.08;339.60;;;;;;;;;;5030581;28;20211;-93
2023/09/11 06:15:21;;;;;;;361.95;350.80;;;;;;;;;;5012353;28;20262;-92
2023/09/11 06:17:47;;;;;;;362.50;351.48;;;;;;;;;;5016131;28;20196;-93
2023/09/11 06:20:15;;;;;;;367.40;356.20;;;;;;;;;;5019411;28;20197;-94
2023/09/11 06:22:43;;;;;;;364.85;353.42;;;;;;;;;;5016023;28;20224;-93
2023/09/11 06:25:09;;;;;;;364.35;351.98;;;;;;;;;;5017564;28;20174;-92
2023/09/11 06:27:35;;;;;;;361.75;350.17;;;;;;;;;;5009025;28;20221;-93
2023/09/11 06:30:05;;;;;;;372.52;361.15;;;;;;;;;;5010246;28;20180;-92
2023/09/11 06:32:31;;;;;;;365.08;353.70;;;;;;;;;;5016436;28;20662;-93
2023/09/11 06:34:57;;;;;;;362.13;351.27;;;;;;;;;;5022551;28;20191;-91
2023/09/11 06:37:23;;;;;;;363.17;351.92;;;;;;;;;;5004314;28;20193;-92
2023/09/11 06:39:50;;;;;;;373.20;361.80;;;;;;;;;;5014374;28;20192;-93
2023/09/11 06:42:23;;;;;;;351.92;341.50;;;;;;;;;;5019748;28;20283;-92
2023/09/11 06:44:52;;;;;;;349.02;338.15;;;;;;;;;;5004318;28;20646;-93
2023/09/11 06:47:19;;;;;;;357.08;346.15;;;;;;;;;;5003589;28;20205;-92
2023/09/11 06:49:45;;;;;;;350.08;339.27;;;;;;;;;;5022446;28;20188;-93
2023/09/11 06:52:11;;;;;;;365.67;352.92;;;;;;;;;;5014905;28;20209;-92
2023/09/11 06:54:37;;;;;;;371.25;357.88;;;;;;;;;;5024012;28;20189;-92
2023/09/11 06:57:03;;;;;;;368.27;356.50;;;;;;;;;;5022601;28;20186;-92
2023/09/11 06:59:29;;;;;;;385.35;373.52;;;;;;;;;;5024893;28;20205;-91
2023/09/11 07:01:55;;;;;;;409.45;396.60;;;;;;;;;;5016082;28;20233;-93
2023/09/11 07:04:21;;;;;;;407.13;394.52;;;;;;;;;;5019647;28;20196;-91
2023/09/11 07:06:48;;;;;;;421.23;407.42;;;;;;;;;;5035937;28;20182;-92
2023/09/11 07:09:14;;;;;;;433.02;419.05;;;;;;;;;;5036564;28;20192;-95
2023/09/11 07:11:40;;;;;;;437.83;424.00;;;;;;;;;;5022889;28;20218;-93
2023/09/11 07:14:08;;;;;;;437.35;423.52;;;;;;;;;;5012038;28;20196;-91
2023/09/11 07:16:34;;;;;;;435.25;421.42;;;;;;;;;;5004594;28;20171;-92
2023/09/11 07:19:00;;;;;;;436.90;422.58;;;;;;;;;;5020257;28;20235;-92
2023/09/11 07:21:26;;;;;;;463.92;449.13;;;;;;;;;;5024095;28;20217;-92
2023/09/11 07:23:52;;;;;;;495.08;478.67;;;;;;;;;;5022898;28;20467;-93
2023/09/11 07:26:19;;;;;;;528.47;510.98;;;;;;;;;;5021437;28;20212;-93
2023/09/11 07:28:59;;;;;;;515.42;498.50;;;;;;;;;;5009586;28;20189;-92
2023/09/11 07:31:25;;;;;;;498.08;481.60;;;;;;;;;;5023227;28;20323;-92
2023/09/11 07:33:51;;;;;;;532.22;514.15;;;;;;;;;;5024461;28;20250;-92
2023/09/11 07:36:19;;;;;;;510.17;493.42;;;;;;;;;;5025430;28;20278;-92
2023/09/11 07:38:45;;;;;;;524.70;507.08;;;;;;;;;;5012300;28;20661;-92
2023/09/11 07:41:11;;;;;;;507.65;491.17;;;;;;;;;;5023408;28;20243;-92
2023/09/11 07:43:37;;;;;;;535.05;516.72;;;;;;;;;;5025775;28;20181;-93
2023/09/11 07:46:03;;;;;;;546.10;526.95;;;;;;;;;;5026435;28;20189;-93
2023/09/11 07:48:29;;;;;;;549.97;531.58;;;;;;;;;;5035687;28;20185;-94
2023/09/11 07:50:59;;;;;;;558.65;539.85;;;;;;;;;;5029943;28;20417;-91
2023/09/11 07:53:25;;;;;;;569.60;550.50;;;;;;;;;;5028439;28;20649;-93
2023/09/11 07:55:51;;;;;;;561.63;542.50;;;;;;;;;;5037224;28;20174;-94
2023/09/11 07:58:17;;;;;;;592.60;571.95;;;;;;;;;;5026897;28;20197;-93
2023/09/11 08:00:43;;;;;;;576.13;554.88;;;;;;;;;;5017265;28;20209;-93
2023/09/11 08:03:09;;;;;;;571.42;551.97;;;;;;;;;;5002405;28;20190;-92
2023/09/11 08:05:35;;;;;;;551.15;532.13;;;;;;;;;;5032118;28;20178;-94
2023/09/11 08:08:02;;;;;;;553.83;535.03;;;;;;;;;;5026259;28;20314;-92
2023/09/11 08:10:28;;;;;;;569.40;549.70;;;;;;;;;;5020168;28;20193;-92
2023/09/11 08:12:55;;;;;;;579.55;559.35;;;;;;;;;;5012999;28;20281;-93
2023/09/11 08:15:21;;;;;;;544.67;526.38;;;;;;;;;;5021525;28;20235;-94
2023/09/11 08:17:47;;;;;;;550.70;531.60;;;;;;;;;;5007261;28;20450;-93
2023/09/11 08:20:14;;;;;;;605.75;584.15;;;;;;;;;;5009553;28;20312;-88
2023/09/11 08:22:41;;;;;;;615.10;593.22;;;;;;;;;;5014760;28;20576;-90
2023/09/11 08:25:10;;;;;;;623.97;600.80;;;;;;;;;;4999857;28;20193;-90
2023/09/11 08:27:36;;;;;;;686.17;659.97;;;;;;;;;;5014009;28;20181;-88
2023/09/11 08:30:02;;;;;;;696.20;668.45;;;;;;;;;;5005027;28;20215;-89
2023/09/11 08:32:29;;;;;;;698.05;670.97;;;;;;;;;;5011607;28;20679;-88
2023/09/11 08:34:55;;;;;;;652.60;628.35;;;;;;;;;;5020280;28;20193;-89
2023/09/11 08:37:24;;;;;;;623.45;601.00;;;;;;;;;;5011772;28;20196;-90
2023/09/11 08:39:50;;;;;;;605.85;584.30;;;;;;;;;;5021510;28;20197;-89
2023/09/11 08:42:17;;;;;;;623.53;601.25;;;;;;;;;;5022814;28;20274;-89
2023/09/11 08:44:43;;;;;;;604.22;583.05;;;;;;;;;;5023022;28;20216;-88
2023/09/11 08:47:09;;;;;;;596.55;575.40;;;;;;;;;;5021890;28;20186;-90
2023/09/11 08:49:40;;;;;;;613.35;591.13;;;;;;;;;;5017976;28;20194;-89
2023/09/11 08:52:10;;;;;;;639.55;616.85;;;;;;;;;;5019089;28;20639;-87
2023/09/11 08:54:38;;;;;;;661.25;637.08;;;;;;;;;;5024602;28;20253;-89
2023/09/11 08:57:04;;;;;;;685.28;659.63;;;;;;;;;;5016171;28;20189;-91
2023/09/11 08:59:33;;;;;;;1999.90;999.90;;;;;;;;;;5014966;28;20208;-91
2023/09/11 09:02:00;;;;;;;1999.90;999.90;;;;;;;;;;5023845;28;20215;-90
2023/09/11 09:04:26;;;;;;;1999.90;999.90;;;;;;;;;;5021819;28;20240;-88
2023/09/11 09:06:53;;;;;;;1999.90;999.90;;;;;;;;;;5023126;28;20208;-90
2023/09/11 09:09:19;;;;;;;1999.90;999.90;;;;;;;;;;5015005;28;20203;-88
2023/09/11 09:11:48;;;;;;;1999.90;999.90;;;;;;;;;;5029634;28;20722;-90
2023/09/11 09:14:18;;;;;;;1999.90;999.90;;;;;;;;;;5022682;28;20178;-90
2023/09/11 09:16:44;;;;;;;1999.90;999.90;;;;;;;;;;5021614;28;20177;-91
2023/09/11 09:19:11;;;;;;;1999.90;999.90;;;;;;;;;;5022938;28;20190;-89
2023/09/11 09:21:36;;;;;;;1999.90;999.90;;;;;;;;;;5023351;28;20244;-88
2023/09/11 09:24:12;;;;;;;1999.90;999.90;;;;;;;;;;5006420;28;20206;-90
2023/09/11 09:26:56;;;;;;;1999.90;999.90;;;;;;;;;;5015215;28;20205;-89
2023/09/11 09:29:22;;;;;;;1999.90;999.90;;;;;;;;;;5015886;28;20182;-89
2023/09/11 09:31:48;;;;;;;1999.90;999.90;;;;;;;;;;5016035;28;20279;-88
2023/09/11 09:34:15;;;;;;;1999.90;999.90;;;;;;;;;;5020898;28;20185;-91
2023/09/11 09:36:50;;;;;;;1999.90;999.90;;;;;;;;;;5023195;28;20212;-89
2023/09/11 09:39:16;;;;;;;1999.90;999.90;;;;;;;;;;5014246;28;20294;-91
2023/09/11 09:41:55;;;;;;;1999.90;999.90;;;;;;;;;;5021074;28;20217;-91
2023/09/11 09:44:30;;;;;;;1999.90;999.90;;;;;;;;;;5014255;28;20663;-91
2023/09/11 09:46:56;;;;;;;1999.90;999.90;;;;;;;;;;5020863;28;20193;-87
2023/09/11 09:49:22;;;;;;;1999.90;999.90;;;;;;;;;;5020868;28;20585;-90
2023/09/11 09:51:48;;;;;;;1999.90;999.90;;;;;;;;;;5021895;28;20206;-89
2023/09/11 09:54:14;;;;;;;1999.90;999.90;;;;;;;;;;5022779;28;20280;-89
2023/09/11 09:56:41;;;;;;;1999.90;999.90;;;;;;;;;;5012655;28;20880;-90
2023/09/11 09:59:07;;;;;;;1999.90;999.90;;;;;;;;;;5020547;28;20196;-88
2023/09/11 10:01:44;;;;;;;1999.90;999.90;;;;;;;;;;5008539;28;20214;-89
2023/09/11 10:04:17;;;;;;;1999.90;999.90;;;;;;;;;;5017139;28;20185;-91
2023/09/11 10:06:43;;;;;;;1999.90;999.90;;;;;;;;;;5018940;28;20189;-90
2023/09/11 10:09:09;;;;;;;1999.90;999.90;;;;;;;;;;5014755;28;20235;-90
2023/09/11 10:11:36;;;;;;;1999.90;999.90;;;;;;;;;;5026906;28;20240;-90
2023/09/11 10:14:03;;;;;;;1999.90;999.90;;;;;;;;;;5013889;28;20912;-91
2023/09/11 10:16:33;;;;;;;1999.90;999.90;;;;;;;;;;5012154;28;20220;-91
2023/09/11 10:19:00;;;;;;;1999.90;999.90;;;;;;;;;;5019982;28;20229;-90
2023/09/11 10:21:26;;;;;;;1999.90;999.90;;;;;;;;;;5011589;28;20236;-90
2023/09/11 10:23:53;;;;;;;1999.90;999.90;;;;;;;;;;5020135;28;20198;-88
2023/09/11 10:26:25;;;;;;;1999.90;999.90;;;;;;;;;;5015977;28;20193;-89
2023/09/11 10:28:52;;;;;;;1999.90;999.90;;;;;;;;;;5007918;28;20209;-91
2023/09/11 10:31:19;;;;;;;1999.90;999.90;;;;;;;;;;5019235;28;20292;-93
2023/09/11 10:33:46;;;;;;;1999.90;999.90;;;;;;;;;;5024616;28;20192;-91
2023/09/11 10:36:14;;;;;;;1999.90;999.90;;;;;;;;;;5027386;28;20174;-89
2023/09/11 10:38:41;;;;;;;1999.90;999.90;;;;;;;;;;5023646;28;20178;-91
2023/09/11 10:41:08;;;;;;;1999.90;999.90;;;;;;;;;;5019835;28;20224;-89
2023/09/11 10:43:34;;;;;;;1999.90;999.90;;;;;;;;;;5012568;28;20213;-89
2023/09/11 10:46:15;;;;;;;1999.90;999.90;;;;;;;;;;5020796;28;20186;-90
2023/09/11 10:48:41;;;;;;;1999.90;999.90;;;;;;;;;;5014345;28;20209;-91
2023/09/11 10:51:07;;;;;;;1999.90;999.90;;;;;;;;;;5007762;28;20700;-89
2023/09/11 10:53:33;;;;;;;1999.90;999.90;;;;;;;;;;5020415;28;20185;-90
2023/09/11 10:56:03;;;;;;;1999.90;999.90;;;;;;;;;;5021745;28;20182;-91
2023/09/11 10:58:29;;;;;;;1999.90;999.90;;;;;;;;;;5015777;28;20679;-89
2023/09/11 11:00:58;;;;;;;1999.90;999.90;;;;;;;;;;5021375;28;20206;-90
2023/09/11 11:03:25;;;;;;;1999.90;999.90;;;;;;;;;;5024189;28;20197;-90
2023/09/11 11:05:55;;;;;;;1999.90;999.90;;;;;;;;;;5018788;28;20223;-91
2023/09/11 11:08:22;;;;;;;1999.90;999.90;;;;;;;;;;5021753;28;20193;-92
2023/09/11 11:10:50;;;;;;;1999.90;999.90;;;;;;;;;;5020529;28;20181;-90
2023/09/11 11:13:17;;;;;;;1999.90;999.90;;;;;;;;;;5010005;28;20620;-90
2023/09/11 11:15:43;;;;;;;1999.90;999.90;;;;;;;;;;5001259;28;20190;-91
2023/09/11 11:18:23;;;;;;;1999.90;999.90;;;;;;;;;;5009552;28;20177;-90
2023/09/11 11:21:02;;;;;;;1999.90;999.90;;;;;;;;;;5003725;28;20182;-90
2023/09/11 11:23:30;;;;;;;1999.90;999.90;;;;;;;;;;5026435;28;20205;-91
2023/09/11 11:26:00;;;;;;;1999.90;999.90;;;;;;;;;;5035279;28;20181;-88
2023/09/11 11:28:26;;;;;;;1999.90;999.90;;;;;;;;;;5019171;28;20483;-90
2023/09/11 11:30:53;;;;;;;1999.90;999.90;;;;;;;;;;5027537;28;20249;-91
2023/09/11 11:33:22;;;;;;;1999.90;999.90;;;;;;;;;;5029363;28;20193;-90
2023/09/11 11:35:48;;;;;;;1999.90;999.90;;;;;;;;;;5018257;28;20193;-89
2023/09/11 11:38:17;;;;;;;1999.90;999.90;;;;;;;;;;5033618;28;20193;-94
2023/09/11 11:40:44;;;;;;;1999.90;999.90;;;;;;;;;;5026376;28;20190;-90
2023/09/11 11:43:11;;;;;;;1999.90;999.90;;;;;;;;;;5017659;28;20265;-94
2023/09/11 11:45:47;;;;;;;1999.90;999.90;;;;;;;;;;5027392;28;20200;-90
2023/09/11 11:48:17;;;;;;;1999.90;999.90;;;;;;;;;;5035249;28;20173;-90
2023/09/11 11:50:47;;;;;;;1999.90;999.90;;;;;;;;;;5027545;28;20189;-93
2023/09/11 11:53:16;;;;;;;1999.90;999.90;;;;;;;;;;5024881;28;20189;-90
2023/09/11 11:55:43;;;;;;;1999.90;999.90;;;;;;;;;;5022104;28;20245;-91
2023/09/11 11:58:13;;;;;;;1999.90;999.90;;;;;;;;;;5021214;28;20189;-92
2023/09/11 12:00:55;;;;;;;1999.90;999.90;;;;;;;;;;5012335;28;20192;-91
2023/09/11 12:03:21;;;;;;;1999.90;999.90;;;;;;;;;;5013276;28;20177;-92
2023/09/11 12:05:47;;;;;;;1999.90;999.90;;;;;;;;;;5016366;28;20178;-92
2023/09/11 12:08:14;;;;;;;1999.90;999.90;;;;;;;;;;5017154;28;20169;-93
2023/09/11 12:10:50;;;;;;;1999.90;999.90;;;;;;;;;;5015827;28;20193;-90
2023/09/11 12:13:23;;;;;;;1999.90;999.90;;;;;;;;;;5013687;28;20580;-92
2023/09/11 12:15:56;;;;;;;1999.90;999.90;;;;;;;;;;5018701;28;20277;-91
2023/09/11 12:18:23;;;;;;;1999.90;999.90;;;;;;;;;;5021086;28;20247;-90
2023/09/11 12:20:56;;;;;;;1999.90;999.90;;;;;;;;;;5018218;28;20748;-91
2023/09/11 12:23:22;;;;;;;1999.90;999.90;;;;;;;;;;5017032;28;20223;-92
2023/09/11 12:25:49;;;;;;;1999.90;999.90;;;;;;;;;;5014045;28;20856;-91
2023/09/11 12:28:15;;;;;;;1999.90;999.90;;;;;;;;;;5022264;28;20275;-93
2023/09/11 12:30:45;;;;;;;1999.90;999.90;;;;;;;;;;5020208;28;20251;-91
2023/09/11 12:33:15;;;;;;;1999.90;999.90;;;;;;;;;;5019861;28;20209;-92
2023/09/11 12:35:42;;;;;;;1999.90;999.90;;;;;;;;;;5014550;28;20584;-93
2023/09/11 12:38:12;;;;;;;1999.90;999.90;;;;;;;;;;5022405;28;20178;-90
2023/09/11 12:40:39;;;;;;;1999.90;999.90;;;;;;;;;;5019778;28;20198;-93
2023/09/11 12:43:05;;;;;;;1999.90;999.90;;;;;;;;;;5021985;28;20217;-93
2023/09/11 12:45:32;;;;;;;1999.90;999.90;;;;;;;;;;5019459;28;20654;-92
2023/09/11 12:48:00;;;;;;;1999.90;999.90;;;;;;;;;;5016461;28;20842;-92
2023/09/11 12:50:27;;;;;;;1999.90;999.90;;;;;;;;;;5022884;28;20216;-91
2023/09/11 12:52:53;;;;;;;1999.90;999.90;;;;;;;;;;5021422;28;20210;-91
2023/09/11 12:55:21;;;;;;;1999.90;999.90;;;;;;;;;;5016936;28;20205;-91
2023/09/11 12:57:51;;;;;;;1999.90;999.90;;;;;;;;;;5021996;28;20235;-90
2023/09/11 13:00:17;;;;;;;1999.90;999.90;;;;;;;;;;5021284;28;20197;-93
2023/09/11 13:02:44;;;;;;;1999.90;999.90;;;;;;;;;;5018473;28;20226;-90
2023/09/11 13:05:10;;;;;;;1999.90;999.90;;;;;;;;;;5016354;28;20193;-90
2023/09/11 13:07:36;;;;;;;1999.90;999.90;;;;;;;;;;5018743;28;20189;-94
2023/09/11 13:10:03;;;;;;;1999.90;999.90;;;;;;;;;;5018286;28;20205;-94
2023/09/11 13:12:29;;;;;;;1999.90;999.90;;;;;;;;;;5015225;28;20209;-91
2023/09/11 13:14:56;;;;;;;1999.90;999.90;;;;;;;;;;5018692;28;20224;-90
2023/09/11 13:17:22;;;;;;;1999.90;999.90;;;;;;;;;;5018771;28;20189;-92
2023/09/11 13:19:48;;;;;;;1999.90;999.90;;;;;;;;;;5013649;28;20319;-91
2023/09/11 13:22:14;;;;;;;1999.90;999.90;;;;;;;;;;5021303;28;20221;-91
2023/09/11 13:24:40;;;;;;;1999.90;999.90;;;;;;;;;;5017230;28;20204;-92
2023/09/11 13:27:07;;;;;;;1999.90;999.90;;;;;;;;;;5015697;28;20193;-93
2023/09/11 13:29:33;;;;;;;1999.90;999.90;;;;;;;;;;5018920;28;20192;-93
2023/09/11 13:31:59;;;;;;;1999.90;999.90;;;;;;;;;;5019186;28;20208;-93
2023/09/11 13:34:25;;;;;;;1999.90;999.90;;;;;;;;;;5018164;28;20188;-90
2023/09/11 13:36:53;;;;;;;1999.90;999.90;;;;;;;;;;5019957;28;21693;-93
2023/09/11 13:39:22;;;;;;;1999.90;999.90;;;;;;;;;;5021597;28;20521;-91
2023/09/11 13:41:48;;;;;;;1999.90;999.90;;;;;;;;;;5021223;28;20214;-92
2023/09/11 13:44:14;;;;;;;1999.90;999.90;;;;;;;;;;5020707;28;20203;-91
2023/09/11 13:46:43;;;;;;;1999.90;999.90;;;;;;;;;;5021665;28;20176;-92
2023/09/11 13:49:09;;;;;;;1999.90;999.90;;;;;;;;;;5022521;28;20199;-92